Time;durP1;ratioP1;P1;durP2;ratioP2;P2;SDS_P1;SDS_P2;PMS_P1;PMS_P2;Temp;Humidity;BMP_temperature;BMP_pressure;BME280_temperature;BME280_humidity;BME280_pressure;Samples;Min_cycle;Max_cycle;Signal;HPM_P1;HPM_P2
2022/10/03 00:00:39;;;;;;;8.85;1.50;;;9.50;99.90;;;;;;4990756;28;20422;-69
2022/10/03 00:03:16;;;;;;;7.50;1.48;;;9.50;99.90;;;;;;4974478;28;20034;-69
2022/10/03 00:06:08;;;;;;;7.68;1.75;;;9.40;99.90;;;;;;4973865;28;20050;-70
2022/10/03 00:08:58;;;;;;;6.53;1.23;;;9.50;99.90;;;;;;4971491;28;20497;-69
2022/10/03 00:11:30;;;;;;;6.70;1.17;;;9.40;99.90;;;;;;4969727;28;20051;-70
2022/10/03 00:14:16;;;;;;;12.55;1.98;;;9.40;99.90;;;;;;4973786;28;20041;-68
2022/10/03 00:17:05;;;;;;;7.65;1.60;;;9.40;99.90;;;;;;4954454;28;20034;-69
2022/10/03 00:19:46;;;;;;;4.57;1.00;;;9.40;99.90;;;;;;4988951;28;20050;-68
2022/10/03 00:22:11;;;;;;;4.50;1.20;;;9.40;99.90;;;;;;4973328;28;20053;-70
2022/10/03 00:24:43;;;;;;;4.40;1.55;;;9.40;99.90;;;;;;4973247;28;20046;-69
2022/10/03 00:27:45;;;;;;;8.35;1.58;;;9.40;99.90;;;;;;4973824;28;20080;-70
2022/10/03 00:30:18;;;;;;;6.22;1.15;;;9.40;99.90;;;;;;4974483;28;20072;-70
2022/10/03 00:32:50;;;;;;;9.45;1.50;;;9.40;99.90;;;;;;5064486;28;20052;-69
2022/10/03 00:35:23;;;;;;;9.13;1.25;;;9.40;99.90;;;;;;5075514;28;20046;-70
2022/10/03 00:38:17;;;;;;;5.13;1.25;;;9.40;99.90;;;;;;5075605;28;20058;-71
2022/10/03 00:40:42;;;;;;;7.95;1.50;;;9.30;99.90;;;;;;5092193;28;20043;-70
2022/10/03 00:43:36;;;;;;;6.35;1.40;;;9.30;99.90;;;;;;5075412;28;20056;-69
2022/10/03 00:46:36;;;;;;;8.10;2.03;;;9.30;99.90;;;;;;5073056;28;20036;-70
2022/10/03 00:49:28;;;;;;;10.00;1.58;;;9.30;99.90;;;;;;5066241;28;20501;-69
2022/10/03 00:52:19;;;;;;;7.80;1.30;;;9.30;99.90;;;;;;5078832;28;20189;-70
2022/10/03 00:55:02;;;;;;;6.68;2.10;;;9.30;99.90;;;;;;5075251;28;20436;-70
2022/10/03 00:58:10;;;;;;;7.65;1.35;;;9.30;99.90;;;;;;5056802;28;20036;-70
2022/10/03 01:00:37;;;;;;;9.32;1.63;;;9.20;99.90;;;;;;4974046;28;20054;-70
2022/10/03 01:03:08;;;;;;;8.57;1.55;;;9.20;99.90;;;;;;4976168;28;20045;-70
2022/10/03 01:05:57;;;;;;;6.90;1.60;;;9.20;99.90;;;;;;4976047;28;20053;-70
2022/10/03 01:08:49;;;;;;;5.63;1.27;;;9.20;99.90;;;;;;4975947;28;20077;-70
2022/10/03 01:11:43;;;;;;;4.28;1.00;;;9.20;99.90;;;;;;4970798;28;20058;-69
2022/10/03 01:14:21;;;;;;;5.85;1.67;;;9.20;99.90;;;;;;4959604;28;20045;-70
2022/10/03 01:17:23;;;;;;;10.18;1.30;;;9.20;99.90;;;;;;4975939;28;20404;-69
2022/10/03 01:20:05;;;;;;;8.52;1.40;;;9.20;99.90;;;;;;4973628;28;20121;-70
2022/10/03 01:22:49;;;;;;;8.35;1.60;;;9.20;99.90;;;;;;4975614;28;20042;-70
2022/10/03 01:25:24;;;;;;;8.43;1.27;;;9.10;99.90;;;;;;4986851;28;20058;-70
2022/10/03 01:31:02;;;;;;;6.20;1.40;;;9.10;99.90;;;;;;5003815;28;20177;-69
2022/10/03 01:33:38;;;;;;;6.55;1.70;;;9.10;99.90;;;;;;4972789;28;20053;-70
2022/10/03 01:36:20;;;;;;;7.32;1.75;;;9.10;99.90;;;;;;4973589;28;20101;-70
2022/10/03 01:39:14;;;;;;;5.97;1.40;;;9.10;99.90;;;;;;5070179;28;20059;-69
2022/10/03 01:41:49;;;;;;;8.93;1.42;;;9.10;99.90;;;;;;5072207;28;20032;-68
2022/10/03 01:44:28;;;;;;;6.68;1.50;;;9.10;99.90;;;;;;5070198;28;20040;-70
2022/10/03 01:47:08;;;;;;;6.72;1.10;;;9.10;99.90;;;;;;5068344;28;20036;-70
2022/10/03 01:49:55;;;;;;;9.38;1.63;;;9.10;99.90;;;;;;5073823;28;20398;-69
2022/10/03 01:52:26;;;;;;;7.85;1.60;;;9.10;99.90;;;;;;5067395;28;20363;-69
2022/10/03 01:55:19;;;;;;;7.38;1.33;;;9.00;99.90;;;;;;5070723;28;20040;-68
2022/10/03 01:58:00;;;;;;;7.00;1.30;;;9.10;99.90;;;;;;5069195;28;20110;-69
2022/10/03 02:00:42;;;;;;;7.22;1.85;;;9.00;99.90;;;;;;5071591;28;20046;-70
2022/10/03 02:03:20;;;;;;;8.10;1.40;;;9.00;99.90;;;;;;5071319;28;20516;-69
2022/10/03 02:06:13;;;;;;;11.02;1.83;;;9.00;99.90;;;;;;5070854;28;20035;-71
2022/10/03 02:08:39;;;;;;;8.15;1.70;;;9.00;99.90;;;;;;5071983;28;20040;-69
2022/10/03 02:11:10;;;;;;;7.47;1.70;;;9.00;99.90;;;;;;5068826;28;20048;-71
2022/10/03 02:13:58;;;;;;;4.50;1.27;;;9.00;99.90;;;;;;5070287;28;20075;-71
2022/10/03 02:16:27;;;;;;;7.72;1.50;;;8.90;99.90;;;;;;5074082;28;20398;-69
2022/10/03 02:19:23;;;;;;;8.50;1.20;;;8.90;99.90;;;;;;5072690;28;20169;-70
2022/10/03 02:21:57;;;;;;;7.65;1.25;;;8.90;99.90;;;;;;5072544;28;20040;-69
2022/10/03 02:24:35;;;;;;;10.88;1.63;;;8.90;99.90;;;;;;5065926;28;20036;-70
2022/10/03 02:27:10;;;;;;;5.78;1.25;;;9.00;99.90;;;;;;5069281;28;20042;-70
2022/10/03 02:30:01;;;;;;;6.85;1.40;;;8.90;99.90;;;;;;5058717;28;20058;-71
2022/10/03 02:32:54;;;;;;;5.53;2.08;;;8.90;99.90;;;;;;5055840;28;20048;-68
2022/10/03 02:35:32;;;;;;;;;;;8.90;99.90;;;;;;5072514;28;20394;-71
2022/10/03 02:38:16;;;;;;;6.88;1.45;;;8.90;99.90;;;;;;5073660;28;19920;-69
2022/10/03 02:41:10;;;;;;;5.97;1.10;;;8.80;99.90;;;;;;5075556;28;20043;-69
2022/10/03 02:44:11;;;;;;;5.60;1.05;;;8.80;99.90;;;;;;5054668;28;20044;-69
2022/10/03 02:46:42;;;;;;;6.53;1.30;;;8.80;99.90;;;;;;5052941;28;20055;-68
2022/10/03 02:49:23;;;;;;;8.55;1.88;;;8.80;99.90;;;;;;5074803;28;20517;-70
2022/10/03 02:52:26;;;;;;;5.68;1.17;;;8.80;99.90;;;;;;5076304;28;20054;-71
2022/10/03 02:54:55;;;;;;;;;;;8.80;99.90;;;;;;5081411;28;20039;-69
2022/10/03 02:57:51;;;;;;;10.25;1.38;;;8.80;99.90;;;;;;5059048;28;19920;-68
2022/10/03 03:00:19;;;;;;;6.63;1.65;;;8.80;99.90;;;;;;5074755;28;20036;-69
2022/10/03 03:03:25;;;;;;;8.25;1.50;;;8.80;99.90;;;;;;5076016;28;20086;-70
2022/10/03 03:05:56;;;;;;;5.50;1.70;;;8.80;99.90;;;;;;5074708;28;20732;-69
2022/10/03 03:09:06;;;;;;;8.50;1.30;;;8.80;99.90;;;;;;5075897;28;20169;-68
2022/10/03 03:11:38;;;;;;;7.25;1.20;;;8.80;99.90;;;;;;5076110;28;20040;-69
2022/10/03 03:14:07;;;;;;;6.90;1.30;;;8.80;99.90;;;;;;5059667;28;20050;-70
2022/10/03 03:16:39;;;;;;;6.72;1.80;;;8.80;99.90;;;;;;5071689;28;20100;-70
2022/10/03 03:19:36;;;;;;;6.97;1.30;;;8.80;99.90;;;;;;5078636;28;20589;-69
2022/10/03 03:22:26;;;;;;;4.25;1.20;;;8.80;99.90;;;;;;5076097;28;20044;-71
2022/10/03 03:25:07;;;;;;;7.82;1.48;;;8.80;99.90;;;;;;5077612;28;20093;-69
2022/10/03 03:28:00;;;;;;;7.93;1.35;;;8.80;99.90;;;;;;5075878;28;20036;-71
2022/10/03 03:31:05;;;;;;;7.63;1.65;;;8.80;99.90;;;;;;5074555;28;20060;-70
2022/10/03 03:33:53;;;;;;;6.43;1.38;;;8.80;99.90;;;;;;4993606;28;20220;-69
2022/10/03 03:36:48;;;;;;;6.43;1.45;;;8.80;99.90;;;;;;4977797;28;20085;-71
2022/10/03 03:39:46;;;;;;;2.80;1.00;;;8.80;99.90;;;;;;4992900;28;20177;-70
2022/10/03 03:42:34;;;;;;;4.15;0.90;;;8.80;99.90;;;;;;5007480;28;20532;-71
2022/10/03 03:44:59;;;;;;;5.18;1.05;;;8.80;99.90;;;;;;4990260;28;20127;-70
2022/10/03 03:47:46;;;;;;;2.58;0.80;;;8.80;99.90;;;;;;4993896;28;20117;-69
2022/10/03 03:50:13;;;;;;;5.35;1.33;;;8.70;99.90;;;;;;4990630;28;20128;-70
2022/10/03 03:53:26;;;;;;;3.20;1.23;;;8.70;99.90;;;;;;4994158;28;20496;-69
2022/10/03 03:56:04;;;;;;;3.28;1.35;;;8.70;99.90;;;;;;4994061;28;20072;-69
2022/10/03 03:58:49;;;;;;;7.40;1.52;;;8.70;99.90;;;;;;4994365;28;20092;-69
2022/10/03 04:01:45;;;;;;;2.83;0.95;;;8.60;99.90;;;;;;4975709;28;20505;-70
2022/10/03 04:04:44;;;;;;;4.25;1.05;;;8.70;99.90;;;;;;4976871;28;20493;-69
2022/10/03 04:07:25;;;;;;;3.08;1.10;;;8.70;99.90;;;;;;4994061;28;20038;-69
2022/10/03 04:10:00;;;;;;;4.05;0.80;;;8.70;99.90;;;;;;5030769;28;20048;-68
2022/10/03 04:12:54;;;;;;;2.10;1.00;;;8.70;99.90;;;;;;5071296;28;20047;-69
2022/10/03 04:15:46;;;;;;;3.75;1.00;;;8.70;99.90;;;;;;5056541;28;20035;-70
2022/10/03 04:19:03;;;;;;;6.65;0.98;;;8.70;99.90;;;;;;5072064;28;20040;-69
2022/10/03 04:21:57;;;;;;;5.07;1.52;;;8.60;99.90;;;;;;4962655;28;20065;-71
2022/10/03 04:24:34;;;;;;;8.30;1.65;;;8.60;99.90;;;;;;4993978;28;20089;-69
2022/10/03 04:27:18;;;;;;;3.25;1.10;;;8.60;99.90;;;;;;4985862;28;20046;-71
2022/10/03 04:29:55;;;;;;;5.55;1.10;;;8.60;99.90;;;;;;4976549;28;20048;-69
2022/10/03 04:32:21;;;;;;;4.95;1.00;;;8.60;99.90;;;;;;4979088;28;20081;-69
2022/10/03 04:35:21;;;;;;;5.90;1.10;;;8.60;99.90;;;;;;4980207;28;20073;-69
2022/10/03 04:38:20;;;;;;;3.58;1.10;;;8.60;99.90;;;;;;4982485;28;20038;-69
2022/10/03 04:41:04;;;;;;;2.38;0.90;;;8.60;99.90;;;;;;4931816;29;20085;-71
2022/10/03 04:44:01;;;;;;;5.10;1.20;;;8.70;99.90;;;;;;4917515;28;20438;-69
2022/10/03 04:47:00;;;;;;;3.72;1.33;;;8.70;99.90;;;;;;4932753;29;20130;-68
2022/10/03 04:50:05;;;;;;;2.85;1.02;;;8.60;99.90;;;;;;4931697;29;20055;-70
2022/10/03 04:52:49;;;;;;;7.20;1.10;;;8.60;99.90;;;;;;4913396;29;20063;-71
2022/10/03 04:55:34;;;;;;;3.78;1.00;;;8.60;99.90;;;;;;4888830;29;20051;-69
2022/10/03 04:58:34;;;;;;;5.53;0.90;;;8.60;99.90;;;;;;4916657;29;20086;-69
2022/10/03 05:01:46;;;;;;;4.75;1.10;;;8.50;99.90;;;;;;4915555;29;20566;-70
2022/10/03 05:04:24;;;;;;;5.07;1.80;;;8.50;99.90;;;;;;4869975;29;20076;-70
2022/10/03 05:07:13;;;;;;;3.97;1.70;;;8.50;99.90;;;;;;4863193;29;20194;-69
2022/10/03 05:09:48;;;;;;;4.22;1.50;;;8.60;99.90;;;;;;4860415;29;20433;-70
2022/10/03 05:12:34;;;;;;;5.82;1.63;;;8.50;99.90;;;;;;4850206;29;20108;-70
2022/10/03 05:15:46;;;;;;;5.60;1.88;;;8.60;99.90;;;;;;4870123;29;20037;-69
2022/10/03 05:18:36;;;;;;;3.25;1.30;;;8.60;99.90;;;;;;4910389;29;20047;-70
2022/10/03 05:21:25;;;;;;;5.18;1.40;;;8.60;99.90;;;;;;4931159;29;20083;-69
2022/10/03 05:23:54;;;;;;;4.38;1.20;;;8.60;99.90;;;;;;4931892;29;20723;-69
2022/10/03 05:26:45;;;;;;;5.47;1.60;;;8.50;99.90;;;;;;4924671;29;20102;-69
2022/10/03 05:29:17;;;;;;;5.30;1.40;;;8.50;99.90;;;;;;4947038;28;20057;-70
2022/10/03 05:32:23;;;;;;;4.30;1.35;;;8.50;99.90;;;;;;4992348;28;20057;-70
2022/10/03 05:34:51;;;;;;;3.35;1.30;;;8.50;99.90;;;;;;4991173;28;20123;-70
2022/10/03 05:37:39;;;;;;;3.30;1.30;;;8.50;99.90;;;;;;5001464;28;20065;-69
2022/10/03 05:40:23;;;;;;;3.40;1.10;;;8.50;99.90;;;;;;5070734;28;20028;-70
2022/10/03 05:42:48;;;;;;;2.47;0.93;;;8.50;99.90;;;;;;5056523;28;20044;-70
2022/10/03 05:45:47;;;;;;;3.00;1.23;;;8.50;99.90;;;;;;5069008;28;20040;-69
2022/10/03 05:48:20;;;;;;;3.13;1.00;;;8.40;99.90;;;;;;5054960;28;20072;-69
2022/10/03 05:51:23;;;;;;;2.33;1.15;;;8.40;99.90;;;;;;5066447;28;20120;-69
2022/10/03 05:54:15;;;;;;;2.15;1.20;;;8.40;99.90;;;;;;5070101;28;20044;-70
2022/10/03 05:56:56;;;;;;;3.88;1.67;;;8.40;99.90;;;;;;5070967;28;20047;-69
2022/10/03 05:59:50;;;;;;;3.22;1.50;;;8.40;99.90;;;;;;5068538;28;20629;-70
2022/10/03 06:02:34;;;;;;;5.80;1.80;;;8.50;99.90;;;;;;5069976;28;20079;-68
2022/10/03 06:05:21;;;;;;;3.40;1.60;;;8.50;99.90;;;;;;5055766;28;20044;-68
2022/10/03 06:08:11;;;;;;;5.72;2.20;;;8.50;99.90;;;;;;5065284;28;20036;-68
2022/10/03 06:10:55;;;;;;;6.80;3.28;;;8.50;99.90;;;;;;5068711;28;20059;-69
2022/10/03 06:13:51;;;;;;;18.35;11.60;;;8.50;99.90;;;;;;5070759;28;20047;-69
2022/10/03 06:16:31;;;;;;;16.92;12.23;;;8.60;99.90;;;;;;5068115;28;20040;-70
2022/10/03 06:19:27;;;;;;;15.48;9.10;;;8.60;99.90;;;;;;5059128;28;20079;-68
2022/10/03 06:22:05;;;;;;;16.98;7.57;;;8.60;99.90;;;;;;5060921;28;20043;-69
2022/10/03 06:24:46;;;;;;;13.80;5.80;;;8.70;99.90;;;;;;5063847;28;20452;-68
2022/10/03 06:27:45;;;;;;;19.20;8.70;;;8.70;99.90;;;;;;5072434;28;20032;-68
2022/10/03 06:30:37;;;;;;;18.77;10.93;;;8.80;99.90;;;;;;5073947;28;20052;-69
2022/10/03 06:33:21;;;;;;;21.10;11.68;;;8.80;99.90;;;;;;5072060;28;20059;-68
2022/10/03 06:36:31;;;;;;;21.48;10.35;;;8.90;99.90;;;;;;5073783;28;20036;-68
2022/10/03 06:39:08;;;;;;;11.23;5.50;;;8.90;99.90;;;;;;4978967;28;20116;-70
2022/10/03 06:41:53;;;;;;;11.43;5.10;;;9.00;99.90;;;;;;4994164;28;20058;-69
2022/10/03 06:44:46;;;;;;;7.97;3.13;;;9.10;99.90;;;;;;4978716;28;20045;-69
2022/10/03 06:47:30;;;;;;;4.53;1.33;;;9.10;99.90;;;;;;4995247;28;20068;-69
2022/10/03 06:50:23;;;;;;;2.95;1.15;;;9.20;99.90;;;;;;4994027;28;20483;-67
2022/10/03 06:53:07;;;;;;;1.70;1.05;;;9.30;99.90;;;;;;4994269;28;20489;-69
2022/10/03 06:56:07;;;;;;;4.82;1.02;;;9.40;99.90;;;;;;4992662;28;20048;-67
2022/10/03 06:58:44;;;;;;;4.07;1.23;;;9.50;99.90;;;;;;4978614;28;20069;-67
2022/10/03 07:01:49;;;;;;;1.80;0.90;;;9.50;99.90;;;;;;4995193;28;20129;-70
2022/10/03 07:04:36;;;;;;;1.50;0.90;;;9.70;99.90;;;;;;4994813;28;20053;-69
2022/10/03 07:07:39;;;;;;;6.57;2.10;;;9.80;99.90;;;;;;4994902;28;20058;-68
2022/10/03 07:10:50;;;;;;;7.32;2.05;;;9.90;99.90;;;;;;4975950;28;20622;-67
2022/10/03 07:14:09;;;;;;;7.25;1.77;;;10.10;99.90;;;;;;5016305;28;20064;-71
2022/10/03 07:17:09;;;;;;;6.10;2.00;;;10.30;99.90;;;;;;5074007;28;20114;-69
2022/10/03 07:20:02;;;;;;;3.55;1.63;;;10.40;99.90;;;;;;5075072;28;20043;-70
2022/10/03 07:22:48;;;;;;;;;;;10.60;99.90;;;;;;5075433;28;20036;-69
2022/10/03 07:25:28;;;;;;;3.60;1.70;;;10.70;99.90;;;;;;4994312;28;20016;-69
2022/10/03 07:28:08;;;;;;;5.30;2.22;;;10.90;99.90;;;;;;4994685;28;20444;-69
2022/10/03 07:30:51;;;;;;;7.78;2.08;;;11.00;99.90;;;;;;4978512;28;20504;-69
2022/10/03 07:33:45;;;;;;;5.00;1.85;;;11.10;99.90;;;;;;4994912;28;20535;-70
2022/10/03 07:39:53;;;;;;;9.43;2.13;;;11.50;99.90;;;;;;4994381;28;20501;-69
2022/10/03 07:42:51;;;;;;;7.55;2.15;;;11.60;99.90;;;;;;4992541;28;20049;-68
2022/10/03 07:45:36;;;;;;;7.90;1.85;;;11.80;99.90;;;;;;4978352;28;20058;-68
2022/10/03 07:48:33;;;;;;;12.32;2.67;;;11.80;99.90;;;;;;4994421;28;20041;-68
2022/10/03 07:51:34;;;;;;;8.38;1.92;;;12.00;99.90;;;;;;4994245;28;20077;-70
2022/10/03 07:54:05;;;;;;;7.00;1.70;;;12.10;99.90;;;;;;4972129;28;20531;-71
2022/10/03 07:57:00;;;;;;;12.35;1.98;;;12.20;99.90;;;;;;4994403;28;20617;-69
2022/10/03 07:59:51;;;;;;;8.98;2.00;;;12.30;99.90;;;;;;5010367;28;20409;-69
2022/10/03 08:02:36;;;;;;;7.72;1.52;;;12.40;99.90;;;;;;5044687;28;20052;-68
2022/10/03 08:05:39;;;;;;;9.88;1.50;;;12.50;99.90;;;;;;5074454;28;20032;-69
2022/10/03 08:08:21;;;;;;;7.88;1.83;;;12.70;99.90;;;;;;5057784;28;20556;-70
2022/10/03 08:11:01;;;;;;;11.10;2.25;;;12.80;99.90;;;;;;5074297;28;20143;-68
2022/10/03 08:13:58;;;;;;;10.90;2.38;;;12.90;99.90;;;;;;5074071;28;20032;-68
2022/10/03 08:16:47;;;;;;;11.65;1.77;;;13.00;99.90;;;;;;5074224;28;20116;-70
2022/10/03 08:19:19;;;;;;;13.15;1.42;;;13.10;99.90;;;;;;5074398;28;20105;-68
2022/10/03 08:22:20;;;;;;;10.02;1.45;;;13.30;99.90;;;;;;5054328;28;20044;-70
2022/10/03 08:25:05;;;;;;;8.25;1.55;;;13.40;99.90;;;;;;4970255;28;20050;-70
2022/10/03 08:28:07;;;;;;;7.22;1.50;;;13.50;99.90;;;;;;4957585;28;20121;-68
2022/10/03 08:30:54;;;;;;;6.60;1.48;;;13.60;99.90;;;;;;4984523;28;20042;-69
2022/10/03 08:33:50;;;;;;;7.68;1.90;;;13.70;99.90;;;;;;4991725;28;20187;-69
2022/10/03 08:36:54;;;;;;;10.50;1.98;;;13.90;99.90;;;;;;4993159;28;20041;-69
2022/10/03 08:39:40;;;;;;;8.73;1.65;;;14.10;99.90;;;;;;4993306;28;20428;-69
2022/10/03 08:42:18;;;;;;;9.13;1.90;;;14.30;99.90;;;;;;4993094;28;20050;-71
2022/10/03 08:45:15;;;;;;;9.32;1.40;;;14.40;99.90;;;;;;5026005;28;20041;-70
2022/10/03 08:48:01;;;;;;;9.27;1.63;;;14.50;99.90;;;;;;4954119;28;20524;-69
2022/10/03 08:50:54;;;;;;;8.48;1.23;;;14.50;99.90;;;;;;4938139;28;20035;-70
2022/10/03 08:53:53;;;;;;;10.43;2.03;;;14.50;99.90;;;;;;4953613;28;20050;-71
2022/10/03 08:56:56;;;;;;;7.65;1.40;;;14.50;99.90;;;;;;4954334;28;20039;-69
2022/10/03 08:59:49;;;;;;;6.57;1.48;;;14.80;99.90;;;;;;4945510;28;20054;-68
2022/10/03 09:02:34;;;;;;;9.93;1.50;;;14.90;99.90;;;;;;5031962;28;20055;-70
2022/10/03 09:05:57;;;;;;;6.22;1.10;;;15.00;99.90;;;;;;5031965;28;20080;-69
2022/10/03 09:08:41;;;;;;;7.35;2.10;;;15.30;99.90;;;;;;4992259;28;20049;-69
2022/10/03 09:11:22;;;;;;;10.75;1.33;;;15.50;99.90;;;;;;5008613;28;20058;-68
2022/10/03 09:14:21;;;;;;;9.65;1.10;;;15.60;99.90;;;;;;5008927;28;20521;-68
2022/10/03 09:17:24;;;;;;;10.77;1.70;;;15.90;99.90;;;;;;4995833;28;20096;-68
2022/10/03 09:20:11;;;;;;;10.65;1.60;;;16.00;99.90;;;;;;4984148;28;20041;-69
2022/10/03 09:22:55;;;;;;;8.88;1.25;;;16.10;99.90;;;;;;5009094;28;20045;-69
2022/10/03 09:25:33;;;;;;;8.98;1.20;;;16.20;99.90;;;;;;5002340;28;20083;-69
2022/10/03 09:28:53;;;;;;;4.72;0.90;;;16.40;99.90;;;;;;5011599;28;20216;-70
2022/10/03 09:31:47;;;;;;;8.80;1.13;;;16.60;99.90;;;;;;4953413;28;20058;-70
2022/10/03 09:34:34;;;;;;;9.32;1.17;;;16.80;99.90;;;;;;4985993;28;20055;-69
2022/10/03 09:37:10;;;;;;;4.72;0.75;;;17.00;99.90;;;;;;4952883;28;20086;-69
2022/10/03 09:40:12;;;;;;;7.47;1.60;;;17.00;99.90;;;;;;4969682;28;20094;-70
2022/10/03 09:43:15;;;;;;;4.57;1.20;;;17.20;99.90;;;;;;4987931;28;20603;-69
2022/10/03 09:45:49;;;;;;;;;;;17.20;99.90;;;;;;5005664;28;20041;-69
2022/10/03 09:48:39;;;;;;;7.05;1.23;;;17.10;99.90;;;;;;4992209;28;20017;-69
2022/10/03 09:51:18;;;;;;;6.30;1.05;;;16.90;99.90;;;;;;4976218;28;20136;-69
2022/10/03 09:54:15;;;;;;;5.35;0.80;;;16.80;99.90;;;;;;5008486;28;20053;-71
2022/10/03 09:56:57;;;;;;;9.25;1.15;;;16.80;99.90;;;;;;5008466;28;20046;-70
2022/10/03 09:59:51;;;;;;;8.13;1.03;;;16.80;99.90;;;;;;5008091;28;20045;-69
2022/10/03 10:02:46;;;;;;;6.75;1.02;;;16.90;99.90;;;;;;5008547;28;20045;-69
2022/10/03 10:05:33;;;;;;;5.20;1.00;;;17.10;99.90;;;;;;5054661;28;20494;-70
2022/10/03 10:08:20;;;;;;;5.75;1.20;;;17.30;99.90;;;;;;5061830;28;20043;-70
2022/10/03 10:10:49;;;;;;;5.07;0.90;;;17.50;99.90;;;;;;5080939;28;20044;-70
2022/10/03 10:13:42;;;;;;;7.50;1.35;;;17.60;99.90;;;;;;5081008;28;20122;-69
2022/10/03 10:16:11;;;;;;;;;;;17.60;99.90;;;;;;5087860;28;20063;-70
2022/10/03 10:19:01;;;;;;;4.90;0.80;;;17.50;99.90;;;;;;5088969;28;19920;-69
2022/10/03 10:21:51;;;;;;;4.80;1.08;;;17.40;99.90;;;;;;5084481;28;20098;-70
2022/10/03 10:25:02;;;;;;;8.00;1.13;;;17.30;99.90;;;;;;5068863;28;20028;-71
2022/10/03 10:27:48;;;;;;;5.28;1.45;;;17.30;99.90;;;;;;5090808;28;20116;-69
2022/10/03 10:30:13;;;;;;;11.30;1.30;;;17.10;99.90;;;;;;5071280;28;20068;-69
2022/10/03 10:33:18;;;;;;;5.47;0.93;;;17.10;99.90;;;;;;5071340;28;20574;-69
2022/10/03 10:35:56;;;;;;;4.03;0.90;;;17.10;99.90;;;;;;5007239;28;20464;-69
2022/10/03 10:38:58;;;;;;;5.57;1.40;;;17.20;99.90;;;;;;4991609;28;20050;-70
2022/10/03 10:41:43;;;;;;;8.25;1.20;;;17.20;99.90;;;;;;4949105;29;20054;-69
2022/10/03 10:44:45;;;;;;;10.35;1.23;;;17.20;99.90;;;;;;4939000;29;20082;-69
2022/10/03 10:47:23;;;;;;;19.05;2.63;;;17.20;99.90;;;;;;4932858;29;20130;-69
2022/10/03 10:50:13;;;;;;;20.17;1.52;;;17.10;99.90;;;;;;4939771;29;20051;-70
2022/10/03 10:53:15;;;;;;;12.55;1.58;;;17.20;99.90;;;;;;4933351;29;20051;-68
2022/10/03 10:55:59;;;;;;;3.83;0.80;;;17.20;99.90;;;;;;4930799;29;20442;-67
2022/10/03 10:58:37;;;;;;;5.22;0.90;;;17.20;99.90;;;;;;4932502;29;20043;-71
2022/10/03 11:01:41;;;;;;;3.63;0.80;;;17.10;99.90;;;;;;4948481;28;20082;-69
2022/10/03 11:04:25;;;;;;;5.97;0.98;;;17.10;99.90;;;;;;4932410;29;20055;-70
2022/10/03 11:06:59;;;;;;;5.28;1.13;;;17.30;99.90;;;;;;4933277;29;20043;-69
2022/10/03 11:09:59;;;;;;;5.50;0.90;;;17.40;99.90;;;;;;4933592;29;20122;-72
2022/10/03 11:12:59;;;;;;;4.07;0.80;;;17.50;99.90;;;;;;5011540;28;20057;-69
2022/10/03 11:15:46;;;;;;;6.60;1.25;;;17.30;99.90;;;;;;5009903;28;20128;-70
2022/10/03 11:18:41;;;;;;;5.22;0.88;;;17.30;99.90;;;;;;5088609;28;20078;-69
2022/10/03 11:21:18;;;;;;;5.68;1.50;;;17.20;99.90;;;;;;5088412;28;20063;-69
2022/10/03 11:24:05;;;;;;;6.55;1.08;;;17.10;99.90;;;;;;5072040;28;20123;-71
2022/10/03 11:27:16;;;;;;;7.53;1.10;;;16.90;99.90;;;;;;5092873;28;20130;-71
2022/10/03 11:29:44;;;;;;;6.53;0.98;;;17.00;99.90;;;;;;5091644;28;20072;-72
2022/10/03 11:32:25;;;;;;;5.20;0.80;;;17.50;99.90;;;;;;5070923;28;20127;-71
2022/10/03 11:35:21;;;;;;;5.28;1.08;;;17.70;99.90;;;;;;5092119;28;20042;-70
2022/10/03 11:38:08;;;;;;;5.75;0.98;;;17.80;99.90;;;;;;5089390;28;20032;-70
2022/10/03 11:40:49;;;;;;;5.95;1.38;;;17.80;99.90;;;;;;5075047;28;20039;-71
2022/10/03 11:43:58;;;;;;;5.65;1.02;;;17.80;99.90;;;;;;5067452;28;20048;-70
2022/10/03 11:46:58;;;;;;;6.15;1.20;;;17.90;99.90;;;;;;5123460;27;20044;-71
2022/10/03 11:49:50;;;;;;;8.05;1.30;;;18.10;99.90;;;;;;5088192;28;20136;-71
2022/10/03 11:52:47;;;;;;;5.28;0.90;;;18.10;99.90;;;;;;5090425;28;20118;-69
2022/10/03 11:55:32;;;;;;;7.57;1.13;;;18.20;99.90;;;;;;5065300;28;20048;-71
2022/10/03 11:58:14;;;;;;;6.22;1.15;;;18.10;99.90;;;;;;5071184;28;20067;-70
2022/10/03 12:00:44;;;;;;;5.50;0.90;;;17.80;99.90;;;;;;5090870;28;20036;-70
2022/10/03 12:03:22;;;;;;;3.88;0.82;;;17.60;99.90;;;;;;5090017;28;20044;-72
2022/10/03 12:09:20;;;;;;;7.70;0.93;;;17.40;99.90;;;;;;5011038;28;20160;-68
2022/10/03 12:12:10;;;;;;;6.57;1.27;;;17.30;99.90;;;;;;5013607;28;20057;-70
2022/10/03 12:14:45;;;;;;;4.90;1.50;;;17.20;99.90;;;;;;5012701;28;20128;-68
2022/10/03 12:17:38;;;;;;;6.20;0.80;;;17.20;99.90;;;;;;5013054;28;20562;-70
2022/10/03 12:20:22;;;;;;;11.80;1.55;;;17.20;99.90;;;;;;5010817;28;20041;-69
2022/10/03 12:23:24;;;;;;;4.60;0.93;;;17.20;99.90;;;;;;5011926;28;20057;-69
2022/10/03 12:25:52;;;;;;;4.35;0.80;;;17.20;99.90;;;;;;5011276;28;20099;-71
2022/10/03 12:28:25;;;;;;;8.35;1.33;;;17.20;99.90;;;;;;5013735;28;20530;-68
2022/10/03 12:30:56;;;;;;;6.03;0.93;;;17.30;99.90;;;;;;5011760;28;20494;-69
2022/10/03 12:33:33;;;;;;;5.97;1.08;;;17.30;99.90;;;;;;5011822;28;20077;-68
2022/10/03 12:36:20;;;;;;;3.80;0.75;;;17.30;99.90;;;;;;5013516;28;20076;-68
2022/10/03 12:39:19;;;;;;;8.77;1.17;;;17.20;99.90;;;;;;5012623;28;20092;-68
2022/10/03 12:42:18;;;;;;;4.95;0.80;;;17.20;99.90;;;;;;5009298;28;20040;-68
2022/10/03 12:45:08;;;;;;;5.70;0.98;;;17.10;99.90;;;;;;5087247;28;20063;-69
2022/10/03 12:47:58;;;;;;;7.78;1.17;;;17.10;99.90;;;;;;5086852;28;20032;-70
2022/10/03 12:50:26;;;;;;;5.65;1.30;;;17.10;99.90;;;;;;5090018;28;20077;-68
2022/10/03 12:53:14;;;;;;;5.28;1.08;;;17.00;99.90;;;;;;5089417;28;20494;-71
2022/10/03 12:56:14;;;;;;;6.50;0.90;;;17.00;99.90;;;;;;5087409;28;20402;-70
2022/10/03 12:59:06;;;;;;;4.47;0.88;;;17.00;99.90;;;;;;5025108;28;20049;-67
2022/10/03 13:01:46;;;;;;;7.68;1.10;;;17.00;99.90;;;;;;5009002;28;20060;-68
2022/10/03 13:04:38;;;;;;;5.43;1.70;;;17.00;99.90;;;;;;5011980;28;20064;-68
2022/10/03 13:07:32;;;;;;;6.00;1.13;;;16.90;99.90;;;;;;4994367;28;20076;-70
2022/10/03 13:10:19;;;;;;;7.47;0.90;;;16.80;99.90;;;;;;5011642;28;20052;-68
2022/10/03 13:13:18;;;;;;;8.90;1.33;;;16.70;99.90;;;;;;5011726;28;20037;-68
2022/10/03 13:15:51;;;;;;;3.28;0.90;;;16.60;99.90;;;;;;5012501;28;20056;-70
2022/10/03 13:18:31;;;;;;;3.97;1.25;;;16.60;99.90;;;;;;4996176;28;20037;-68
2022/10/03 13:21:08;;;;;;;5.45;0.95;;;16.60;99.90;;;;;;5012199;28;20053;-67
2022/10/03 13:24:41;;;;;;;5.13;0.95;;;16.60;99.90;;;;;;5011627;28;20045;-69
2022/10/03 13:27:36;;;;;;;5.47;0.90;;;16.60;99.90;;;;;;4934301;28;20051;-70
2022/10/03 13:30:16;;;;;;;5.32;1.30;;;16.60;99.90;;;;;;4950541;28;20055;-70
2022/10/03 13:32:48;;;;;;;4.75;0.77;;;16.60;99.90;;;;;;4950303;28;20840;-68
2022/10/03 13:38:48;;;;;;;5.03;0.90;;;16.50;99.90;;;;;;4972598;28;20034;-71
2022/10/03 13:41:32;;;;;;;3.60;1.02;;;16.50;99.90;;;;;;4899681;29;20044;-68
2022/10/03 13:44:03;;;;;;;7.88;1.25;;;16.60;99.90;;;;;;4915467;29;20066;-69
2022/10/03 13:46:36;;;;;;;4.57;1.00;;;16.60;99.90;;;;;;4915625;29;20650;-67
2022/10/03 13:49:17;;;;;;;7.68;0.95;;;16.70;99.90;;;;;;4914898;29;20518;-69
2022/10/03 13:52:01;;;;;;;8.02;1.13;;;16.70;99.90;;;;;;4895591;29;20060;-71
2022/10/03 13:54:58;;;;;;;5.20;0.90;;;16.70;99.90;;;;;;4914991;29;20554;-69
2022/10/03 13:57:32;;;;;;;4.70;1.00;;;16.80;99.90;;;;;;4923915;29;20059;-70
2022/10/03 13:59:57;;;;;;;6.93;0.95;;;16.80;99.90;;;;;;4948755;29;20047;-70
2022/10/03 14:02:28;;;;;;;6.95;0.80;;;16.90;99.90;;;;;;4933536;28;20075;-68
2022/10/03 14:05:19;;;;;;;6.13;0.85;;;17.00;99.90;;;;;;4991860;28;20409;-69
2022/10/03 14:07:47;;;;;;;3.80;0.77;;;17.10;99.90;;;;;;4992086;28;20077;-68
2022/10/03 14:10:27;;;;;;;6.20;1.30;;;17.20;99.90;;;;;;4975584;28;20045;-69
2022/10/03 14:13:15;;;;;;;4.82;0.73;;;17.40;99.90;;;;;;4992369;28;20053;-70
2022/10/03 14:16:02;;;;;;;5.68;1.08;;;17.50;99.90;;;;;;4991786;28;20046;-70
2022/10/03 14:18:46;;;;;;;3.58;1.20;;;17.70;99.90;;;;;;5038805;28;20355;-70
2022/10/03 14:21:33;;;;;;;3.83;1.02;;;17.70;99.90;;;;;;5088822;28;20543;-70
2022/10/03 14:24:41;;;;;;;4.50;0.73;;;17.60;99.90;;;;;;5069161;28;20071;-69
2022/10/03 14:27:21;;;;;;;4.25;0.65;;;17.60;99.90;;;;;;4990405;28;20125;-70
2022/10/03 14:30:12;;;;;;;5.57;1.25;;;17.60;99.90;;;;;;4989601;28;20394;-68
2022/10/03 14:32:56;;;;;;;5.57;0.98;;;17.50;99.90;;;;;;4974800;28;20054;-70
2022/10/03 14:35:57;;;;;;;5.50;0.90;;;17.40;99.90;;;;;;4991636;28;20044;-68
2022/10/03 14:41:46;;;;;;;6.20;0.95;;;17.20;99.90;;;;;;4991048;28;20057;-69
2022/10/03 14:44:14;;;;;;;5.63;1.08;;;17.00;99.90;;;;;;4914039;29;20052;-69
2022/10/03 14:46:54;;;;;;;4.88;0.90;;;16.80;99.90;;;;;;4918888;29;20518;-69
2022/10/03 14:49:26;;;;;;;3.88;1.45;;;16.80;99.90;;;;;;4918973;29;20062;-70
2022/10/03 14:52:00;;;;;;;3.77;0.77;;;16.70;99.90;;;;;;4918692;29;20502;-71